sensor_id;sensor_type;location;lat;lon;timestamp;P1;durP1;ratioP1;P2;durP2;ratioP2
42018;SDS011;27703;51.980;5.848;2023-04-28T00:00:48;2.80;;;0.90;;
42018;SDS011;27703;51.980;5.848;2023-04-28T00:03:14;2.25;;;0.75;;
42018;SDS011;27703;51.980;5.848;2023-04-28T00:05:40;1.90;;;0.80;;
42018;SDS011;27703;51.980;5.848;2023-04-28T00:08:05;2.65;;;0.85;;
42018;SDS011;27703;51.980;5.848;2023-04-28T00:10:31;2.60;;;1.05;;
42018;SDS011;27703;51.980;5.848;2023-04-28T00:12:57;4.10;;;1.30;;
42018;SDS011;27703;51.980;5.848;2023-04-28T00:15:23;1.88;;;0.90;;
42018;SDS011;27703;51.980;5.848;2023-04-28T00:17:48;4.10;;;0.85;;
42018;SDS011;27703;51.980;5.848;2023-04-28T00:20:14;2.58;;;0.98;;
42018;SDS011;27703;51.980;5.848;2023-04-28T00:22:40;3.42;;;1.00;;
42018;SDS011;27703;51.980;5.848;2023-04-28T00:25:06;1.35;;;0.70;;
42018;SDS011;27703;51.980;5.848;2023-04-28T00:27:32;2.88;;;0.63;;
42018;SDS011;27703;51.980;5.848;2023-04-28T00:29:58;2.55;;;0.82;;
42018;SDS011;27703;51.980;5.848;2023-04-28T00:32:23;2.60;;;1.08;;
42018;SDS011;27703;51.980;5.848;2023-04-28T00:34:49;2.03;;;0.70;;
42018;SDS011;27703;51.980;5.848;2023-04-28T00:37:15;2.15;;;0.60;;
42018;SDS011;27703;51.980;5.848;2023-04-28T00:39:41;3.22;;;0.95;;
42018;SDS011;27703;51.980;5.848;2023-04-28T00:42:10;2.67;;;0.73;;
42018;SDS011;27703;51.980;5.848;2023-04-28T00:44:39;2.20;;;0.60;;
42018;SDS011;27703;51.980;5.848;2023-04-28T00:47:05;3.55;;;1.02;;
42018;SDS011;27703;51.980;5.848;2023-04-28T00:49:32;2.47;;;0.80;;
42018;SDS011;27703;51.980;5.848;2023-04-28T00:51:59;1.90;;;0.60;;
42018;SDS011;27703;51.980;5.848;2023-04-28T00:54:29;1.90;;;0.95;;
42018;SDS011;27703;51.980;5.848;2023-04-28T00:56:54;2.22;;;0.85;;
42018;SDS011;27703;51.980;5.848;2023-04-28T00:59:21;1.20;;;0.60;;
42018;SDS011;27703;51.980;5.848;2023-04-28T01:01:46;3.78;;;0.73;;
42018;SDS011;27703;51.980;5.848;2023-04-28T01:04:12;2.85;;;0.80;;
42018;SDS011;27703;51.980;5.848;2023-04-28T01:06:40;1.67;;;0.60;;
42018;SDS011;27703;51.980;5.848;2023-04-28T01:09:06;1.42;;;0.68;;
42018;SDS011;27703;51.980;5.848;2023-04-28T01:11:31;1.98;;;0.60;;
42018;SDS011;27703;51.980;5.848;2023-04-28T01:13:57;3.90;;;0.80;;
42018;SDS011;27703;51.980;5.848;2023-04-28T01:16:24;3.38;;;0.90;;
42018;SDS011;27703;51.980;5.848;2023-04-28T01:18:50;1.45;;;0.60;;
42018;SDS011;27703;51.980;5.848;2023-04-28T01:24:11;4.53;;;0.77;;
42018;SDS011;27703;51.980;5.848;2023-04-28T01:26:37;2.20;;;0.93;;
42018;SDS011;27703;51.980;5.848;2023-04-28T01:29:02;2.13;;;0.93;;
42018;SDS011;27703;51.980;5.848;2023-04-28T01:31:28;2.55;;;0.60;;
42018;SDS011;27703;51.980;5.848;2023-04-28T01:33:55;1.38;;;0.70;;
42018;SDS011;27703;51.980;5.848;2023-04-28T01:36:20;1.48;;;0.70;;
42018;SDS011;27703;51.980;5.848;2023-04-28T01:38:47;1.42;;;0.50;;
42018;SDS011;27703;51.980;5.848;2023-04-28T01:41:13;1.75;;;0.57;;
42018;SDS011;27703;51.980;5.848;2023-04-28T01:43:39;1.80;;;0.73;;
42018;SDS011;27703;51.980;5.848;2023-04-28T01:46:05;2.75;;;0.73;;
42018;SDS011;27703;51.980;5.848;2023-04-28T01:48:30;1.42;;;0.70;;
42018;SDS011;27703;51.980;5.848;2023-04-28T01:50:56;2.80;;;0.93;;
42018;SDS011;27703;51.980;5.848;2023-04-28T01:53:21;2.08;;;0.70;;
42018;SDS011;27703;51.980;5.848;2023-04-28T01:55:47;1.40;;;0.60;;
42018;SDS011;27703;51.980;5.848;2023-04-28T01:58:13;2.28;;;0.75;;
42018;SDS011;27703;51.980;5.848;2023-04-28T02:00:38;1.67;;;0.77;;
42018;SDS011;27703;51.980;5.848;2023-04-28T02:03:04;1.55;;;0.70;;
42018;SDS011;27703;51.980;5.848;2023-04-28T02:05:30;1.63;;;0.70;;
42018;SDS011;27703;51.980;5.848;2023-04-28T02:07:55;3.63;;;1.00;;
42018;SDS011;27703;51.980;5.848;2023-04-28T02:10:22;2.60;;;1.20;;
42018;SDS011;27703;51.980;5.848;2023-04-28T02:12:47;3.05;;;0.85;;
42018;SDS011;27703;51.980;5.848;2023-04-28T02:15:13;2.17;;;0.50;;
42018;SDS011;27703;51.980;5.848;2023-04-28T02:17:39;2.22;;;0.68;;
42018;SDS011;27703;51.980;5.848;2023-04-28T02:20:05;3.75;;;1.00;;
42018;SDS011;27703;51.980;5.848;2023-04-28T02:22:31;2.08;;;0.65;;
42018;SDS011;27703;51.980;5.848;2023-04-28T02:24:57;3.22;;;0.70;;
42018;SDS011;27703;51.980;5.848;2023-04-28T02:27:22;2.67;;;1.35;;
42018;SDS011;27703;51.980;5.848;2023-04-28T02:29:48;2.88;;;0.90;;
42018;SDS011;27703;51.980;5.848;2023-04-28T02:32:13;3.38;;;1.08;;
42018;SDS011;27703;51.980;5.848;2023-04-28T02:34:39;4.03;;;1.10;;
42018;SDS011;27703;51.980;5.848;2023-04-28T02:37:04;2.33;;;0.70;;
42018;SDS011;27703;51.980;5.848;2023-04-28T02:39:30;3.17;;;0.73;;
42018;SDS011;27703;51.980;5.848;2023-04-28T02:41:57;1.98;;;0.70;;
42018;SDS011;27703;51.980;5.848;2023-04-28T02:44:22;3.17;;;0.90;;
42018;SDS011;27703;51.980;5.848;2023-04-28T02:46:48;4.53;;;2.53;;
42018;SDS011;27703;51.980;5.848;2023-04-28T02:49:14;1.70;;;0.60;;
42018;SDS011;27703;51.980;5.848;2023-04-28T02:51:40;1.55;;;0.65;;
42018;SDS011;27703;51.980;5.848;2023-04-28T02:54:05;1.45;;;0.65;;
42018;SDS011;27703;51.980;5.848;2023-04-28T02:56:31;4.90;;;0.90;;
42018;SDS011;27703;51.980;5.848;2023-04-28T02:58:58;1.88;;;0.98;;
42018;SDS011;27703;51.980;5.848;2023-04-28T03:01:23;1.50;;;0.70;;
42018;SDS011;27703;51.980;5.848;2023-04-28T03:03:49;2.33;;;1.20;;
42018;SDS011;27703;51.980;5.848;2023-04-28T03:06:14;1.48;;;0.68;;
42018;SDS011;27703;51.980;5.848;2023-04-28T03:08:40;4.22;;;0.85;;
42018;SDS011;27703;51.980;5.848;2023-04-28T03:11:06;4.72;;;0.70;;
42018;SDS011;27703;51.980;5.848;2023-04-28T03:13:31;1.77;;;0.95;;
42018;SDS011;27703;51.980;5.848;2023-04-28T03:15:57;3.90;;;0.93;;
42018;SDS011;27703;51.980;5.848;2023-04-28T03:18:22;2.00;;;0.80;;
42018;SDS011;27703;51.980;5.848;2023-04-28T03:20:48;2.83;;;0.90;;
42018;SDS011;27703;51.980;5.848;2023-04-28T03:23:14;2.22;;;1.02;;
42018;SDS011;27703;51.980;5.848;2023-04-28T03:25:40;2.65;;;1.05;;
42018;SDS011;27703;51.980;5.848;2023-04-28T03:28:06;2.67;;;1.17;;
42018;SDS011;27703;51.980;5.848;2023-04-28T03:30:31;1.95;;;0.80;;
42018;SDS011;27703;51.980;5.848;2023-04-28T03:32:57;2.40;;;1.08;;
42018;SDS011;27703;51.980;5.848;2023-04-28T03:35:22;2.47;;;0.90;;
42018;SDS011;27703;51.980;5.848;2023-04-28T03:37:48;4.15;;;0.98;;
42018;SDS011;27703;51.980;5.848;2023-04-28T03:40:13;4.40;;;0.85;;
42018;SDS011;27703;51.980;5.848;2023-04-28T03:42:39;3.78;;;1.05;;
42018;SDS011;27703;51.980;5.848;2023-04-28T03:45:05;2.00;;;1.52;;
42018;SDS011;27703;51.980;5.848;2023-04-28T03:47:31;2.03;;;0.95;;
42018;SDS011;27703;51.980;5.848;2023-04-28T03:49:57;1.60;;;0.80;;
42018;SDS011;27703;51.980;5.848;2023-04-28T03:52:23;1.95;;;0.95;;
42018;SDS011;27703;51.980;5.848;2023-04-28T03:54:48;1.48;;;0.88;;
42018;SDS011;27703;51.980;5.848;2023-04-28T03:57:14;2.85;;;1.08;;
42018;SDS011;27703;51.980;5.848;2023-04-28T03:59:40;1.40;;;0.60;;
42018;SDS011;27703;51.980;5.848;2023-04-28T04:02:05;2.08;;;0.77;;
42018;SDS011;27703;51.980;5.848;2023-04-28T04:04:31;1.80;;;0.80;;
42018;SDS011;27703;51.980;5.848;2023-04-28T04:06:56;2.25;;;1.25;;
42018;SDS011;27703;51.980;5.848;2023-04-28T04:09:23;2.45;;;0.80;;
42018;SDS011;27703;51.980;5.848;2023-04-28T04:11:48;3.05;;;1.20;;
42018;SDS011;27703;51.980;5.848;2023-04-28T04:14:14;4.07;;;1.20;;
42018;SDS011;27703;51.980;5.848;2023-04-28T04:16:40;2.92;;;1.17;;
42018;SDS011;27703;51.980;5.848;2023-04-28T04:19:05;2.05;;;1.02;;
42018;SDS011;27703;51.980;5.848;2023-04-28T04:21:31;5.20;;;1.15;;
42018;SDS011;27703;51.980;5.848;2023-04-28T04:23:56;2.58;;;1.05;;
42018;SDS011;27703;51.980;5.848;2023-04-28T04:26:22;2.95;;;1.40;;
42018;SDS011;27703;51.980;5.848;2023-04-28T04:28:48;7.65;;;1.38;;
42018;SDS011;27703;51.980;5.848;2023-04-28T04:31:13;2.80;;;1.30;;
42018;SDS011;27703;51.980;5.848;2023-04-28T04:33:39;2.75;;;1.27;;
42018;SDS011;27703;51.980;5.848;2023-04-28T04:36:05;2.78;;;1.35;;
42018;SDS011;27703;51.980;5.848;2023-04-28T04:38:31;7.35;;;2.28;;
42018;SDS011;27703;51.980;5.848;2023-04-28T04:40:56;4.75;;;1.50;;
42018;SDS011;27703;51.980;5.848;2023-04-28T04:43:22;4.15;;;1.77;;
42018;SDS011;27703;51.980;5.848;2023-04-28T04:45:48;3.60;;;1.90;;
42018;SDS011;27703;51.980;5.848;2023-04-28T04:48:13;4.07;;;1.60;;
42018;SDS011;27703;51.980;5.848;2023-04-28T04:50:39;5.80;;;2.17;;
42018;SDS011;27703;51.980;5.848;2023-04-28T04:53:05;5.43;;;2.05;;
42018;SDS011;27703;51.980;5.848;2023-04-28T04:55:30;3.55;;;1.95;;
42018;SDS011;27703;51.980;5.848;2023-04-28T04:57:56;3.60;;;1.67;;
42018;SDS011;27703;51.980;5.848;2023-04-28T05:00:22;2.80;;;2.10;;
42018;SDS011;27703;51.980;5.848;2023-04-28T05:02:47;5.85;;;2.83;;
42018;SDS011;27703;51.980;5.848;2023-04-28T05:05:13;4.93;;;2.90;;
42018;SDS011;27703;51.980;5.848;2023-04-28T05:07:38;5.53;;;3.10;;
42018;SDS011;27703;51.980;5.848;2023-04-28T05:10:04;5.55;;;3.10;;
42018;SDS011;27703;51.980;5.848;2023-04-28T05:12:31;5.68;;;2.42;;
42018;SDS011;27703;51.980;5.848;2023-04-28T05:14:56;4.72;;;3.35;;
42018;SDS011;27703;51.980;5.848;2023-04-28T05:17:22;7.90;;;3.72;;
42018;SDS011;27703;51.980;5.848;2023-04-28T05:19:48;6.10;;;3.28;;
42018;SDS011;27703;51.980;5.848;2023-04-28T05:22:13;8.15;;;4.25;;
42018;SDS011;27703;51.980;5.848;2023-04-28T05:24:39;7.88;;;2.95;;
42018;SDS011;27703;51.980;5.848;2023-04-28T05:27:04;6.13;;;2.83;;
42018;SDS011;27703;51.980;5.848;2023-04-28T05:29:30;4.82;;;3.50;;
42018;SDS011;27703;51.980;5.848;2023-04-28T05:31:55;3.72;;;3.10;;
42018;SDS011;27703;51.980;5.848;2023-04-28T05:34:21;5.40;;;3.88;;
42018;SDS011;27703;51.980;5.848;2023-04-28T05:36:47;6.50;;;2.92;;
42018;SDS011;27703;51.980;5.848;2023-04-28T05:39:12;8.07;;;3.65;;
42018;SDS011;27703;51.980;5.848;2023-04-28T05:41:38;6.03;;;3.70;;
42018;SDS011;27703;51.980;5.848;2023-04-28T05:44:04;10.85;;;4.28;;
42018;SDS011;27703;51.980;5.848;2023-04-28T05:46:29;5.35;;;3.60;;
42018;SDS011;27703;51.980;5.848;2023-04-28T05:48:55;6.72;;;3.60;;
42018;SDS011;27703;51.980;5.848;2023-04-28T05:51:21;6.32;;;3.30;;
42018;SDS011;27703;51.980;5.848;2023-04-28T05:53:47;4.65;;;3.58;;
42018;SDS011;27703;51.980;5.848;2023-04-28T05:56:13;6.93;;;4.13;;
42018;SDS011;27703;51.980;5.848;2023-04-28T05:58:39;6.22;;;4.05;;
42018;SDS011;27703;51.980;5.848;2023-04-28T06:01:04;5.93;;;4.50;;
42018;SDS011;27703;51.980;5.848;2023-04-28T06:03:30;7.35;;;5.35;;
42018;SDS011;27703;51.980;5.848;2023-04-28T06:05:56;6.22;;;4.40;;
42018;SDS011;27703;51.980;5.848;2023-04-28T06:08:21;4.90;;;4.07;;
42018;SDS011;27703;51.980;5.848;2023-04-28T06:10:47;4.97;;;3.53;;
42018;SDS011;27703;51.980;5.848;2023-04-28T06:13:12;9.18;;;4.05;;
42018;SDS011;27703;51.980;5.848;2023-04-28T06:15:38;6.43;;;3.05;;
42018;SDS011;27703;51.980;5.848;2023-04-28T06:18:04;6.60;;;2.92;;
42018;SDS011;27703;51.980;5.848;2023-04-28T06:20:33;5.70;;;2.60;;
42018;SDS011;27703;51.980;5.848;2023-04-28T06:23:00;5.43;;;3.72;;
42018;SDS011;27703;51.980;5.848;2023-04-28T06:25:25;6.63;;;4.20;;
42018;SDS011;27703;51.980;5.848;2023-04-28T06:27:51;4.15;;;3.17;;
42018;SDS011;27703;51.980;5.848;2023-04-28T06:30:17;7.03;;;4.75;;
42018;SDS011;27703;51.980;5.848;2023-04-28T06:32:44;8.60;;;5.53;;
42018;SDS011;27703;51.980;5.848;2023-04-28T06:35:10;8.80;;;5.05;;
42018;SDS011;27703;51.980;5.848;2023-04-28T06:37:35;5.47;;;4.03;;
42018;SDS011;27703;51.980;5.848;2023-04-28T06:40:01;6.97;;;4.68;;
42018;SDS011;27703;51.980;5.848;2023-04-28T06:42:26;6.47;;;4.80;;
42018;SDS011;27703;51.980;5.848;2023-04-28T06:44:52;10.90;;;6.95;;
42018;SDS011;27703;51.980;5.848;2023-04-28T06:47:17;11.05;;;7.35;;
42018;SDS011;27703;51.980;5.848;2023-04-28T06:49:43;12.52;;;6.75;;
42018;SDS011;27703;51.980;5.848;2023-04-28T06:52:11;9.27;;;6.55;;
42018;SDS011;27703;51.980;5.848;2023-04-28T06:54:38;9.52;;;6.50;;
42018;SDS011;27703;51.980;5.848;2023-04-28T06:57:03;10.05;;;5.43;;
42018;SDS011;27703;51.980;5.848;2023-04-28T06:59:29;12.63;;;4.82;;
42018;SDS011;27703;51.980;5.848;2023-04-28T07:01:55;8.13;;;5.63;;
42018;SDS011;27703;51.980;5.848;2023-04-28T07:04:21;7.63;;;5.88;;
42018;SDS011;27703;51.980;5.848;2023-04-28T07:06:46;9.05;;;6.93;;
42018;SDS011;27703;51.980;5.848;2023-04-28T07:09:12;8.70;;;5.97;;
42018;SDS011;27703;51.980;5.848;2023-04-28T07:11:38;8.10;;;5.72;;
42018;SDS011;27703;51.980;5.848;2023-04-28T07:14:03;12.75;;;7.75;;
42018;SDS011;27703;51.980;5.848;2023-04-28T07:16:29;10.27;;;8.15;;
42018;SDS011;27703;51.980;5.848;2023-04-28T07:18:54;10.82;;;8.23;;
42018;SDS011;27703;51.980;5.848;2023-04-28T07:21:20;11.85;;;7.85;;
42018;SDS011;27703;51.980;5.848;2023-04-28T07:23:46;13.40;;;8.32;;
42018;SDS011;27703;51.980;5.848;2023-04-28T07:26:12;11.40;;;7.53;;
42018;SDS011;27703;51.980;5.848;2023-04-28T07:28:40;12.85;;;9.07;;
42018;SDS011;27703;51.980;5.848;2023-04-28T07:31:06;13.88;;;10.32;;
42018;SDS011;27703;51.980;5.848;2023-04-28T07:33:32;16.35;;;10.32;;
42018;SDS011;27703;51.980;5.848;2023-04-28T07:35:57;15.07;;;11.00;;
42018;SDS011;27703;51.980;5.848;2023-04-28T07:38:23;13.38;;;9.82;;
42018;SDS011;27703;51.980;5.848;2023-04-28T07:40:49;13.52;;;9.88;;
42018;SDS011;27703;51.980;5.848;2023-04-28T07:43:14;13.20;;;9.73;;
42018;SDS011;27703;51.980;5.848;2023-04-28T07:45:40;15.32;;;10.85;;
42018;SDS011;27703;51.980;5.848;2023-04-28T07:48:09;13.57;;;9.20;;
42018;SDS011;27703;51.980;5.848;2023-04-28T07:50:35;17.20;;;11.30;;
42018;SDS011;27703;51.980;5.848;2023-04-28T07:53:00;14.55;;;10.50;;
42018;SDS011;27703;51.980;5.848;2023-04-28T07:55:26;16.50;;;10.52;;
42018;SDS011;27703;51.980;5.848;2023-04-28T07:57:52;16.13;;;12.02;;
42018;SDS011;27703;51.980;5.848;2023-04-28T08:00:17;14.52;;;10.55;;
42018;SDS011;27703;51.980;5.848;2023-04-28T08:02:43;12.45;;;9.82;;
42018;SDS011;27703;51.980;5.848;2023-04-28T08:05:09;11.70;;;9.57;;
42018;SDS011;27703;51.980;5.848;2023-04-28T08:07:35;13.52;;;10.32;;
42018;SDS011;27703;51.980;5.848;2023-04-28T08:10:01;17.38;;;11.40;;
42018;SDS011;27703;51.980;5.848;2023-04-28T08:12:28;14.85;;;11.00;;
42018;SDS011;27703;51.980;5.848;2023-04-28T08:14:54;13.55;;;10.48;;
42018;SDS011;27703;51.980;5.848;2023-04-28T08:17:20;15.52;;;11.68;;
42018;SDS011;27703;51.980;5.848;2023-04-28T08:19:46;12.10;;;9.65;;
42018;SDS011;27703;51.980;5.848;2023-04-28T08:22:11;15.18;;;11.93;;
42018;SDS011;27703;51.980;5.848;2023-04-28T08:24:37;15.13;;;11.80;;
42018;SDS011;27703;51.980;5.848;2023-04-28T08:27:03;16.13;;;11.23;;
42018;SDS011;27703;51.980;5.848;2023-04-28T08:29:29;15.10;;;10.73;;
42018;SDS011;27703;51.980;5.848;2023-04-28T08:31:55;14.63;;;11.48;;
42018;SDS011;27703;51.980;5.848;2023-04-28T08:34:21;14.80;;;10.85;;
42018;SDS011;27703;51.980;5.848;2023-04-28T08:36:47;14.70;;;11.98;;
42018;SDS011;27703;51.980;5.848;2023-04-28T08:39:13;14.35;;;10.82;;
42018;SDS011;27703;51.980;5.848;2023-04-28T08:41:38;14.60;;;9.23;;
42018;SDS011;27703;51.980;5.848;2023-04-28T08:44:08;16.45;;;10.85;;
42018;SDS011;27703;51.980;5.848;2023-04-28T08:46:34;14.48;;;10.93;;
42018;SDS011;27703;51.980;5.848;2023-04-28T08:49:01;17.42;;;11.90;;
42018;SDS011;27703;51.980;5.848;2023-04-28T08:51:33;15.07;;;11.43;;
42018;SDS011;27703;51.980;5.848;2023-04-28T08:56:33;14.52;;;10.02;;
42018;SDS011;27703;51.980;5.848;2023-04-28T08:59:02;13.23;;;9.90;;
42018;SDS011;27703;51.980;5.848;2023-04-28T09:01:29;14.05;;;10.57;;
42018;SDS011;27703;51.980;5.848;2023-04-28T09:04:00;13.90;;;11.05;;
42018;SDS011;27703;51.980;5.848;2023-04-28T09:06:36;12.50;;;10.13;;
42018;SDS011;27703;51.980;5.848;2023-04-28T09:09:21;11.80;;;8.70;;
42018;SDS011;27703;51.980;5.848;2023-04-28T09:11:50;13.20;;;9.40;;
42018;SDS011;27703;51.980;5.848;2023-04-28T09:14:15;15.93;;;9.77;;
42018;SDS011;27703;51.980;5.848;2023-04-28T09:16:41;11.98;;;9.13;;
42018;SDS011;27703;51.980;5.848;2023-04-28T09:19:06;18.33;;;11.02;;
42018;SDS011;27703;51.980;5.848;2023-04-28T09:21:32;12.75;;;10.18;;
42018;SDS011;27703;51.980;5.848;2023-04-28T09:24:09;13.60;;;10.27;;
42018;SDS011;27703;51.980;5.848;2023-04-28T09:26:47;14.38;;;9.10;;
42018;SDS011;27703;51.980;5.848;2023-04-28T09:29:14;13.02;;;9.10;;
42018;SDS011;27703;51.980;5.848;2023-04-28T09:31:40;10.48;;;8.63;;
42018;SDS011;27703;51.980;5.848;2023-04-28T09:34:07;15.07;;;9.48;;
42018;SDS011;27703;51.980;5.848;2023-04-28T09:36:33;14.73;;;9.38;;
42018;SDS011;27703;51.980;5.848;2023-04-28T09:38:59;12.40;;;9.10;;
42018;SDS011;27703;51.980;5.848;2023-04-28T09:44:14;10.35;;;9.25;;
42018;SDS011;27703;51.980;5.848;2023-04-28T09:46:44;10.43;;;8.40;;
42018;SDS011;27703;51.980;5.848;2023-04-28T09:49:11;9.27;;;7.57;;
42018;SDS011;27703;51.980;5.848;2023-04-28T09:51:37;9.57;;;8.45;;
42018;SDS011;27703;51.980;5.848;2023-04-28T09:54:03;12.02;;;10.35;;
42018;SDS011;27703;51.980;5.848;2023-04-28T09:56:30;12.45;;;10.07;;
42018;SDS011;27703;51.980;5.848;2023-04-28T09:58:57;11.75;;;10.10;;
42018;SDS011;27703;51.980;5.848;2023-04-28T10:01:24;11.18;;;10.07;;
42018;SDS011;27703;51.980;5.848;2023-04-28T10:03:51;9.18;;;7.72;;
42018;SDS011;27703;51.980;5.848;2023-04-28T10:06:18;12.55;;;10.57;;
42018;SDS011;27703;51.980;5.848;2023-04-28T10:08:44;11.38;;;10.00;;
42018;SDS011;27703;51.980;5.848;2023-04-28T10:11:12;15.45;;;8.45;;
42018;SDS011;27703;51.980;5.848;2023-04-28T10:13:41;13.93;;;10.38;;
42018;SDS011;27703;51.980;5.848;2023-04-28T10:16:09;11.90;;;10.68;;
42018;SDS011;27703;51.980;5.848;2023-04-28T10:18:35;10.38;;;9.30;;
42018;SDS011;27703;51.980;5.848;2023-04-28T10:21:02;10.65;;;8.73;;
42018;SDS011;27703;51.980;5.848;2023-04-28T10:26:08;13.48;;;8.68;;
42018;SDS011;27703;51.980;5.848;2023-04-28T10:28:36;9.50;;;7.65;;
42018;SDS011;27703;51.980;5.848;2023-04-28T10:31:10;10.93;;;8.20;;
42018;SDS011;27703;51.980;5.848;2023-04-28T10:33:37;13.52;;;9.00;;
42018;SDS011;27703;51.980;5.848;2023-04-28T10:36:03;13.35;;;10.60;;
42018;SDS011;27703;51.980;5.848;2023-04-28T10:38:30;18.17;;;11.00;;
42018;SDS011;27703;51.980;5.848;2023-04-28T10:40:56;14.57;;;11.77;;
42018;SDS011;27703;51.980;5.848;2023-04-28T10:43:34;11.38;;;10.27;;
42018;SDS011;27703;51.980;5.848;2023-04-28T10:46:05;16.58;;;11.85;;
42018;SDS011;27703;51.980;5.848;2023-04-28T10:56:11;15.77;;;14.07;;
42018;SDS011;27703;51.980;5.848;2023-04-28T10:58:40;15.73;;;14.07;;
42018;SDS011;27703;51.980;5.848;2023-04-28T11:03:54;15.60;;;13.43;;
42018;SDS011;27703;51.980;5.848;2023-04-28T11:06:25;16.27;;;14.65;;
42018;SDS011;27703;51.980;5.848;2023-04-28T11:08:56;14.68;;;13.15;;
42018;SDS011;27703;51.980;5.848;2023-04-28T11:11:30;14.50;;;12.93;;
42018;SDS011;27703;51.980;5.848;2023-04-28T11:16:55;13.95;;;12.65;;
42018;SDS011;27703;51.980;5.848;2023-04-28T11:19:30;13.13;;;11.93;;
42018;SDS011;27703;51.980;5.848;2023-04-28T11:22:01;12.18;;;10.88;;
42018;SDS011;27703;51.980;5.848;2023-04-28T11:24:28;13.00;;;11.70;;
42018;SDS011;27703;51.980;5.848;2023-04-28T11:26:57;15.05;;;13.55;;
42018;SDS011;27703;51.980;5.848;2023-04-28T11:29:31;14.65;;;11.20;;
42018;SDS011;27703;51.980;5.848;2023-04-28T11:31:58;11.25;;;10.13;;
42018;SDS011;27703;51.980;5.848;2023-04-28T11:34:24;16.85;;;12.90;;
42018;SDS011;27703;51.980;5.848;2023-04-28T11:36:49;12.10;;;10.90;;
42018;SDS011;27703;51.980;5.848;2023-04-28T11:39:15;14.20;;;12.85;;
42018;SDS011;27703;51.980;5.848;2023-04-28T11:41:49;15.50;;;12.95;;
42018;SDS011;27703;51.980;5.848;2023-04-28T11:44:15;18.52;;;15.95;;
42018;SDS011;27703;51.980;5.848;2023-04-28T11:46:46;15.00;;;13.40;;
42018;SDS011;27703;51.980;5.848;2023-04-28T11:49:20;17.42;;;14.45;;
42018;SDS011;27703;51.980;5.848;2023-04-28T11:51:48;17.73;;;15.57;;
42018;SDS011;27703;51.980;5.848;2023-04-28T11:54:19;18.65;;;15.90;;
42018;SDS011;27703;51.980;5.848;2023-04-28T11:56:46;18.58;;;14.70;;
42018;SDS011;27703;51.980;5.848;2023-04-28T11:59:12;19.17;;;15.98;;
42018;SDS011;27703;51.980;5.848;2023-04-28T12:01:48;19.08;;;16.25;;
42018;SDS011;27703;51.980;5.848;2023-04-28T12:07:03;18.48;;;15.38;;
42018;SDS011;27703;51.980;5.848;2023-04-28T12:09:30;23.35;;;17.70;;
42018;SDS011;27703;51.980;5.848;2023-04-28T12:11:58;20.42;;;16.55;;
42018;SDS011;27703;51.980;5.848;2023-04-28T12:14:26;24.77;;;18.30;;
42018;SDS011;27703;51.980;5.848;2023-04-28T12:16:53;22.02;;;17.77;;
42018;SDS011;27703;51.980;5.848;2023-04-28T12:19:18;24.95;;;18.98;;
42018;SDS011;27703;51.980;5.848;2023-04-28T12:22:03;23.25;;;17.77;;
42018;SDS011;27703;51.980;5.848;2023-04-28T12:24:30;23.27;;;16.58;;
42018;SDS011;27703;51.980;5.848;2023-04-28T12:29:48;20.80;;;15.50;;
42018;SDS011;27703;51.980;5.848;2023-04-28T12:32:15;21.35;;;16.40;;
42018;SDS011;27703;51.980;5.848;2023-04-28T12:34:42;21.48;;;15.55;;
42018;SDS011;27703;51.980;5.848;2023-04-28T12:37:09;20.95;;;15.35;;
42018;SDS011;27703;51.980;5.848;2023-04-28T12:39:37;22.35;;;17.05;;
42018;SDS011;27703;51.980;5.848;2023-04-28T12:42:05;19.88;;;15.73;;
42018;SDS011;27703;51.980;5.848;2023-04-28T12:44:31;21.42;;;15.55;;
42018;SDS011;27703;51.980;5.848;2023-04-28T12:46:59;19.55;;;15.82;;
42018;SDS011;27703;51.980;5.848;2023-04-28T12:49:26;20.13;;;15.43;;
42018;SDS011;27703;51.980;5.848;2023-04-28T12:51:52;17.50;;;12.85;;
42018;SDS011;27703;51.980;5.848;2023-04-28T12:54:17;18.50;;;13.45;;
42018;SDS011;27703;51.980;5.848;2023-04-28T12:56:43;17.15;;;13.27;;
42018;SDS011;27703;51.980;5.848;2023-04-28T12:59:09;16.00;;;12.75;;
42018;SDS011;27703;51.980;5.848;2023-04-28T13:01:34;18.63;;;12.50;;
42018;SDS011;27703;51.980;5.848;2023-04-28T13:04:00;16.23;;;12.30;;
42018;SDS011;27703;51.980;5.848;2023-04-28T13:06:26;12.85;;;11.10;;
42018;SDS011;27703;51.980;5.848;2023-04-28T13:08:52;13.43;;;10.80;;
42018;SDS011;27703;51.980;5.848;2023-04-28T13:11:18;13.98;;;11.80;;
42018;SDS011;27703;51.980;5.848;2023-04-28T13:13:43;14.38;;;11.05;;
42018;SDS011;27703;51.980;5.848;2023-04-28T13:16:09;14.05;;;11.27;;
42018;SDS011;27703;51.980;5.848;2023-04-28T13:18:36;12.35;;;10.18;;
42018;SDS011;27703;51.980;5.848;2023-04-28T13:21:01;14.85;;;10.95;;
42018;SDS011;27703;51.980;5.848;2023-04-28T13:23:29;10.50;;;9.18;;
42018;SDS011;27703;51.980;5.848;2023-04-28T13:25:54;13.60;;;9.73;;
42018;SDS011;27703;51.980;5.848;2023-04-28T13:28:20;12.07;;;8.65;;
42018;SDS011;27703;51.980;5.848;2023-04-28T13:30:46;11.15;;;8.95;;
42018;SDS011;27703;51.980;5.848;2023-04-28T13:33:11;9.85;;;8.80;;
42018;SDS011;27703;51.980;5.848;2023-04-28T13:35:37;12.32;;;9.63;;
42018;SDS011;27703;51.980;5.848;2023-04-28T13:38:02;14.65;;;11.25;;
42018;SDS011;27703;51.980;5.848;2023-04-28T13:40:28;10.82;;;9.13;;
42018;SDS011;27703;51.980;5.848;2023-04-28T13:42:54;10.93;;;9.77;;
42018;SDS011;27703;51.980;5.848;2023-04-28T13:45:20;12.05;;;9.88;;
42018;SDS011;27703;51.980;5.848;2023-04-28T13:47:45;11.48;;;9.25;;
42018;SDS011;27703;51.980;5.848;2023-04-28T13:50:12;8.88;;;7.97;;
42018;SDS011;27703;51.980;5.848;2023-04-28T13:52:38;8.23;;;6.32;;
42018;SDS011;27703;51.980;5.848;2023-04-28T13:55:03;11.57;;;7.90;;
42018;SDS011;27703;51.980;5.848;2023-04-28T13:57:29;9.25;;;7.97;;
42018;SDS011;27703;51.980;5.848;2023-04-28T13:59:55;11.90;;;8.63;;
42018;SDS011;27703;51.980;5.848;2023-04-28T14:02:21;7.15;;;6.38;;
42018;SDS011;27703;51.980;5.848;2023-04-28T14:04:48;8.48;;;7.68;;
42018;SDS011;27703;51.980;5.848;2023-04-28T14:07:14;9.18;;;7.43;;
42018;SDS011;27703;51.980;5.848;2023-04-28T14:09:40;6.78;;;6.07;;
42018;SDS011;27703;51.980;5.848;2023-04-28T14:12:06;7.05;;;5.72;;
42018;SDS011;27703;51.980;5.848;2023-04-28T14:14:32;8.45;;;5.10;;
42018;SDS011;27703;51.980;5.848;2023-04-28T14:16:58;6.00;;;5.38;;
42018;SDS011;27703;51.980;5.848;2023-04-28T14:19:24;5.07;;;4.63;;
42018;SDS011;27703;51.980;5.848;2023-04-28T14:21:51;5.75;;;5.15;;
42018;SDS011;27703;51.980;5.848;2023-04-28T14:24:17;4.97;;;4.47;;
42018;SDS011;27703;51.980;5.848;2023-04-28T14:26:44;5.40;;;3.85;;
42018;SDS011;27703;51.980;5.848;2023-04-28T14:29:10;6.25;;;4.60;;
42018;SDS011;27703;51.980;5.848;2023-04-28T14:31:35;5.15;;;4.68;;
42018;SDS011;27703;51.980;5.848;2023-04-28T14:34:02;5.57;;;4.13;;
42018;SDS011;27703;51.980;5.848;2023-04-28T14:36:27;4.50;;;2.92;;
42018;SDS011;27703;51.980;5.848;2023-04-28T14:38:55;3.55;;;2.58;;
42018;SDS011;27703;51.980;5.848;2023-04-28T14:41:21;3.58;;;3.28;;
42018;SDS011;27703;51.980;5.848;2023-04-28T14:43:47;3.90;;;2.40;;
42018;SDS011;27703;51.980;5.848;2023-04-28T14:46:12;3.03;;;2.75;;
42018;SDS011;27703;51.980;5.848;2023-04-28T14:48:38;2.97;;;2.67;;
42018;SDS011;27703;51.980;5.848;2023-04-28T14:51:03;3.20;;;2.80;;
42018;SDS011;27703;51.980;5.848;2023-04-28T14:53:29;3.70;;;3.40;;
42018;SDS011;27703;51.980;5.848;2023-04-28T14:55:56;2.55;;;1.95;;
42018;SDS011;27703;51.980;5.848;2023-04-28T14:58:23;3.22;;;2.72;;
42018;SDS011;27703;51.980;5.848;2023-04-28T15:00:48;2.40;;;1.88;;
42018;SDS011;27703;51.980;5.848;2023-04-28T15:03:14;3.25;;;2.95;;